Time;durP1;ratioP1;P1;durP2;ratioP2;P2;SDS_P1;SDS_P2;PMS_P1;PMS_P2;Temp;Humidity;BMP_temperature;BMP_pressure;BME280_temperature;BME280_humidity;BME280_pressure;Samples;Min_cycle;Max_cycle;Signal;HPM_P1;HPM_P2
2023/11/06 00:01:17;;;;;;;1.87;0.63;;;;;;;;;;6123313;23;20416;-85
2023/11/06 00:04:17;;;;;;;3.40;1.13;;;;;;;;;;6097914;23;20423;-82
2023/11/06 00:07:15;;;;;;;2.03;0.80;;;;;;;;;;6128571;23;20502;-87
2023/11/06 00:13:12;;;;;;;1.20;0.80;;;;;;;;;;6141032;23;20434;-84
2023/11/06 00:15:56;;;;;;;3.13;1.03;;;;;;;;;;6106336;23;20447;-85
2023/11/06 00:18:48;;;;;;;;;;;;;;;;;;;;;
2023/11/06 00:21:32;;;;;;;1.87;0.80;;;;;;;;;;6098309;23;20460;-80
2023/11/06 00:27:07;;;;;;;3.17;1.10;;;;;;;;;;6129008;23;20420;-83
2023/11/06 00:29:55;;;;;;;1.53;1.10;;;;;;;;;;6100409;23;20450;-82
2023/11/06 00:32:34;;;;;;;3.20;1.07;;;;;;;;;;6099266;23;20507;-82
2023/11/06 00:35:12;;;;;;;2.43;1.23;;;;;;;;;;6099835;23;20800;-83
2023/11/06 00:38:03;;;;;;;1.70;0.87;;;;;;;;;;6098610;23;20451;-81
2023/11/06 00:40:35;;;;;;;2.83;1.30;;;;;;;;;;6104567;23;20416;-81
2023/11/06 00:43:23;;;;;;;2.97;1.03;;;;;;;;;;6107531;23;20917;-83
2023/11/06 00:46:19;;;;;;;2.60;1.13;;;;;;;;;;6101466;23;20689;-83
2023/11/06 00:48:47;;;;;;;2.40;1.20;;;;;;;;;;6124379;23;20422;-81
2023/11/06 00:51:39;;;;;;;1.63;1.20;;;;;;;;;;6091362;23;20400;-82
2023/11/06 00:54:14;;;;;;;2.20;1.00;;;;;;;;;;6094903;23;20455;-85
2023/11/06 00:57:09;;;;;;;3.20;2.90;;;;;;;;;;6103200;23;20415;-82
2023/11/06 01:00:05;;;;;;;3.67;1.30;;;;;;;;;;6109993;23;20779;-85
2023/11/06 01:03:16;;;;;;;;;;;;;;;;;;;;;
2023/11/06 01:09:24;;;;;;;3.03;1.20;;;;;;;;;;6066032;23;20428;-83
2023/11/06 01:12:18;;;;;;;4.20;0.90;;;;;;;;;;6086269;23;20475;-83
2023/11/06 01:15:32;;;;;;;3.77;1.00;;;;;;;;;;6106573;23;20458;-81
2023/11/06 01:18:17;;;;;;;2.77;1.03;;;;;;;;;;6052981;23;20415;-84
2023/11/06 01:21:26;;;;;;;;;;;;;;;;;;;;;
2023/11/06 01:24:48;;;;;;;;;;;;;;;;;;;;;
2023/11/06 01:27:53;;;;;;;2.43;1.10;;;;;;;;;;6123064;23;20434;-85
2023/11/06 01:30:52;;;;;;;2.40;1.00;;;;;;;;;;6095202;23;21139;-83
2023/11/06 01:37:10;;;;;;;3.53;1.17;;;;;;;;;;6097971;23;20408;-82
2023/11/06 01:43:32;;;;;;;0.80;0.57;;;;;;;;;;6107947;23;20412;-84
2023/11/06 01:50:00;;;;;;;1.17;0.67;;;;;;;;;;6032070;23;20404;-83
2023/11/06 01:52:48;;;;;;;1.73;0.97;;;;;;;;;;6099715;23;20621;-84
2023/11/06 01:55:47;;;;;;;1.90;0.97;;;;;;;;;;6054081;23;20458;-85
2023/11/06 02:02:25;;;;;;;8.23;1.47;;;;;;;;;;6032303;23;20406;-82
2023/11/06 02:05:15;;;;;;;3.47;1.20;;;;;;;;;;6038841;23;20442;-84
2023/11/06 02:08:02;;;;;;;1.57;1.00;;;;;;;;;;6035644;23;20881;-83
2023/11/06 02:10:47;;;;;;;1.77;0.90;;;;;;;;;;6036173;23;20433;-83
2023/11/06 02:13:58;;;;;;;3.23;0.90;;;;;;;;;;5985719;23;20547;-83
2023/11/06 02:17:16;;;;;;;;;;;;;;;;;;;;;
2023/11/06 02:20:41;;;;;;;1.57;1.00;;;;;;;;;;6034757;23;20428;-83
2023/11/06 02:26:31;;;;;;;2.17;1.00;;;;;;;;;;6141107;23;20464;-84
2023/11/06 02:29:12;;;;;;;0.80;0.80;;;;;;;;;;6091469;23;20392;-86
2023/11/06 02:32:34;;;;;;;1.60;0.93;;;;;;;;;;6124830;23;20409;-87
2023/11/06 02:35:16;;;;;;;1.50;0.60;;;;;;;;;;5977509;23;20444;-84
2023/11/06 02:41:24;;;;;;;0.90;0.77;;;;;;;;;;6013051;23;20399;-83
2023/11/06 02:44:22;;;;;;;1.83;0.97;;;;;;;;;;6010501;23;20439;-82
2023/11/06 02:50:19;;;;;;;1.33;0.87;;;;;;;;;;5924386;24;20409;-83
2023/11/06 02:53:11;;;;;;;1.60;0.97;;;;;;;;;;5904022;24;20432;-82
2023/11/06 02:55:55;;;;;;;1.83;0.80;;;;;;;;;;5817975;24;20567;-81
2023/11/06 02:59:00;;;;;;;2.67;0.90;;;;;;;;;;5818116;24;20429;-81
2023/11/06 03:01:40;;;;;;;2.60;0.80;;;;;;;;;;5827843;24;21303;-85
2023/11/06 03:07:39;;;;;;;1.30;0.80;;;;;;;;;;5822663;24;20439;-85
2023/11/06 03:10:53;;;;;;;1.67;0.83;;;;;;;;;;5810140;24;20400;-86
2023/11/06 03:16:59;;;;;;;1.37;0.70;;;;;;;;;;5808717;24;20460;-84
2023/11/06 03:20:10;;;;;;;;;;;;;;;;;;;;;
2023/11/06 03:23:07;;;;;;;1.63;0.87;;;;;;;;;;5870216;24;20443;-87
2023/11/06 03:26:21;;;;;;;1.73;0.90;;;;;;;;;;5979209;23;20411;-81
2023/11/06 03:28:59;;;;;;;2.10;1.00;;;;;;;;;;6095564;23;20383;-84
2023/11/06 03:31:49;;;;;;;3.50;0.83;;;;;;;;;;6047841;23;20515;-84
2023/11/06 03:34:55;;;;;;;;;;;;;;;;;;;;;
2023/11/06 03:37:44;;;;;;;3.80;1.10;;;;;;;;;;6114711;23;20408;-82
2023/11/06 03:41:06;;;;;;;1.70;0.90;;;;;;;;;;6067548;23;20428;-82
2023/11/06 03:43:56;;;;;;;2.23;0.70;;;;;;;;;;6085420;23;20416;-84
2023/11/06 03:46:25;;;;;;;4.73;0.80;;;;;;;;;;6091287;23;20737;-83
2023/11/06 03:49:25;;;;;;;1.13;0.60;;;;;;;;;;6091511;23;20424;-83
2023/11/06 03:52:21;;;;;;;1.83;1.10;;;;;;;;;;6088194;23;20447;-84
2023/11/06 03:57:26;;;;;;;1.10;0.90;;;;;;;;;;6113861;23;20509;-82
2023/11/06 03:59:59;;;;;;;2.23;1.23;;;;;;;;;;6112861;23;20962;-84
2023/11/06 04:02:46;;;;;;;2.00;1.10;;;;;;;;;;6112323;23;20506;-83
2023/11/06 04:05:43;;;;;;;2.60;0.73;;;;;;;;;;6108384;23;20472;-82
2023/11/06 04:08:54;;;;;;;4.37;1.03;;;;;;;;;;6086842;23;20444;-81
2023/11/06 04:15:13;;;;;;;1.37;0.90;;;;;;;;;;5995668;23;20478;-82
2023/11/06 04:17:51;;;;;;;1.77;0.70;;;;;;;;;;6105514;23;20423;-82
2023/11/06 04:20:43;;;;;;;3.03;0.83;;;;;;;;;;6092482;23;20411;-86
2023/11/06 04:26:49;;;;;;;3.77;1.23;;;;;;;;;;6092337;23;20425;-84
2023/11/06 04:29:27;;;;;;;4.20;1.27;;;;;;;;;;6093171;23;20504;-82
2023/11/06 04:32:08;;;;;;;2.63;1.00;;;;;;;;;;6094078;23;20665;-85
2023/11/06 04:34:51;;;;;;;2.83;0.83;;;;;;;;;;6108652;23;20420;-86
2023/11/06 04:37:36;;;;;;;;;;;;;;;;;;;;;
2023/11/06 04:40:28;;;;;;;3.10;1.00;;;;;;;;;;6109174;23;20397;-84
2023/11/06 04:43:40;;;;;;;3.37;1.00;;;;;;;;;;6092981;23;20411;-86
2023/11/06 04:46:26;;;;;;;3.33;0.97;;;;;;;;;;6091130;23;20437;-84
2023/11/06 04:49:17;;;;;;;3.23;1.40;;;;;;;;;;6078898;23;20397;-83
2023/11/06 04:52:01;;;;;;;5.27;1.20;;;;;;;;;;6090777;23;20416;-81
2023/11/06 04:55:03;;;;;;;2.70;1.30;;;;;;;;;;6089953;23;20497;-82
2023/11/06 04:58:12;;;;;;;1.40;0.97;;;;;;;;;;6082740;23;20496;-84
2023/11/06 05:00:50;;;;;;;3.90;1.27;;;;;;;;;;6030167;23;20810;-82
2023/11/06 05:03:39;;;;;;;2.83;1.20;;;;;;;;;;6108382;23;20412;-82
2023/11/06 05:06:37;;;;;;;4.90;1.10;;;;;;;;;;6088543;23;20421;-81
2023/11/06 05:09:34;;;;;;;2.43;1.60;;;;;;;;;;6089540;23;20417;-82
2023/11/06 05:12:32;;;;;;;4.57;1.20;;;;;;;;;;6073585;23;20409;-82
2023/11/06 05:15:20;;;;;;;6.80;1.43;;;;;;;;;;6091409;23;20543;-80
2023/11/06 05:21:30;;;;;;;4.00;0.97;;;;;;;;;;6087042;23;20424;-82
2023/11/06 05:24:23;;;;;;;5.93;1.67;;;;;;;;;;6078187;23;20459;-83
2023/11/06 05:27:09;;;;;;;5.13;1.40;;;;;;;;;;6089043;23;20404;-85
2023/11/06 05:29:59;;;;;;;6.03;1.30;;;;;;;;;;6088941;23;20440;-82
2023/11/06 05:33:02;;;;;;;4.87;1.33;;;;;;;;;;6084718;23;20949;-82
2023/11/06 05:35:44;;;;;;;8.30;2.20;;;;;;;;;;6090468;23;20476;-83
2023/11/06 05:38:47;;;;;;;9.43;2.10;;;;;;;;;;6091429;23;20413;-82
2023/11/06 05:41:28;;;;;;;7.00;1.53;;;;;;;;;;6079203;23;20423;-85
2023/11/06 05:44:21;;;;;;;7.30;1.67;;;;;;;;;;6079737;23;20436;-83
2023/11/06 05:47:08;;;;;;;4.67;1.80;;;;;;;;;;6090063;23;20408;-83
2023/11/06 05:49:54;;;;;;;5.87;1.53;;;;;;;;;;6091634;23;20568;-83
2023/11/06 05:52:45;;;;;;;6.20;2.00;;;;;;;;;;6109453;23;20419;-83
2023/11/06 05:55:39;;;;;;;8.30;1.83;;;;;;;;;;6094446;23;20447;-81
2023/11/06 05:58:21;;;;;;;7.20;1.77;;;;;;;;;;6097064;23;20415;-82
2023/11/06 06:01:11;;;;;;;5.77;1.50;;;;;;;;;;6119909;23;20463;-83
2023/11/06 06:04:10;;;;;;;6.00;1.60;;;;;;;;;;6094860;23;20439;-84
2023/11/06 06:07:00;;;;;;;5.03;1.63;;;;;;;;;;6086880;23;20415;-82
2023/11/06 06:09:33;;;;;;;4.53;1.50;;;;;;;;;;6093597;23;20422;-81
2023/11/06 06:12:20;;;;;;;5.53;1.60;;;;;;;;;;6096653;23;20479;-83
2023/11/06 06:15:24;;;;;;;4.57;1.37;;;;;;;;;;6089870;23;21295;-82
2023/11/06 06:18:00;;;;;;;2.80;1.60;;;;;;;;;;6085891;23;20412;-85
2023/11/06 06:21:07;;;;;;;3.20;1.60;;;;;;;;;;6092389;23;20407;-83
2023/11/06 06:24:10;;;;;;;4.80;2.13;;;;;;;;;;6065920;23;20514;-82
2023/11/06 06:26:40;;;;;;;7.10;1.67;;;;;;;;;;6100984;23;20423;-83
2023/11/06 06:32:34;;;;;;;6.03;1.60;;;;;;;;;;6035993;23;20418;-82
2023/11/06 06:38:54;;;;;;;2.87;1.47;;;;;;;;;;6030735;23;20414;-83
2023/11/06 06:41:52;;;;;;;8.23;1.83;;;;;;;;;;6010133;23;20425;-83
2023/11/06 06:44:50;;;;;;;7.87;1.80;;;;;;;;;;6064444;23;20522;-83
2023/11/06 06:47:33;;;;;;;6.13;2.13;;;;;;;;;;6094375;23;20416;-83
2023/11/06 07:00:41;;;;;;;4.53;1.50;;;;;;;;;;6035384;23;20385;-82
2023/11/06 07:06:29;;;;;;;9.70;1.80;;;;;;;;;;6121458;23;20455;-83
2023/11/06 07:09:37;;;;;;;;;;;;;;;;;;;;;
2023/11/06 07:12:36;;;;;;;3.03;1.77;;;;;;;;;;6121477;23;20423;-83
2023/11/06 07:15:58;;;;;;;3.33;2.80;;;;;;;;;;6092541;23;20810;-83
2023/11/06 07:19:19;;;;;;;8.90;1.90;;;;;;;;;;6085640;23;21306;-84
2023/11/06 07:22:42;;;;;;;6.30;1.60;;;;;;;;;;5981794;23;21038;-83
2023/11/06 07:32:20;;;;;;;4.60;1.70;;;;;;;;;;6000777;23;20415;-84
2023/11/06 07:35:14;;;;;;;2.90;1.10;;;;;;;;;;5976537;23;20463;-83
2023/11/06 07:38:01;;;;;;;8.10;1.80;;;;;;;;;;5873867;24;20425;-83
2023/11/06 07:41:09;;;;;;;6.43;1.43;;;;;;;;;;5869254;24;20790;-83
2023/11/06 07:44:06;;;;;;;3.23;1.40;;;;;;;;;;5869504;24;20515;-84
2023/11/06 07:46:53;;;;;;;8.07;1.73;;;;;;;;;;5875490;24;20452;-82
2023/11/06 07:49:51;;;;;;;4.67;1.17;;;;;;;;;;5880644;24;20423;-84
2023/11/06 07:52:56;;;;;;;4.57;1.63;;;;;;;;;;5880088;24;20529;-83
2023/11/06 07:55:53;;;;;;;3.83;1.50;;;;;;;;;;5786507;24;20458;-84
2023/11/06 07:58:47;;;;;;;4.97;1.37;;;;;;;;;;5863792;24;20773;-84
2023/11/06 08:22:56;;;;;;;3.80;1.40;;;;;;;;;;5949295;23;20357;-83
2023/11/06 08:32:34;;;;;;;5.13;1.53;;;;;;;;;;5980656;24;20454;-80
2023/11/06 08:35:30;;;;;;;2.97;1.00;;;;;;;;;;5977190;24;20427;-80
2023/11/06 08:42:13;;;;;;;;;;;;;;;;;;;;;
2023/11/06 08:51:34;;;;;;;3.13;1.47;;;;;;;;;;5946491;24;20429;-82
2023/11/06 08:57:33;;;;;;;2.20;0.97;;;;;;;;;;6120032;23;20455;-80
2023/11/06 09:00:48;;;;;;;2.10;1.27;;;;;;;;;;6105824;23;20427;-81
2023/11/06 09:04:02;;;;;;;4.40;0.93;;;;;;;;;;6018928;23;20524;-82
2023/11/06 09:06:32;;;;;;;5.70;1.53;;;;;;;;;;6002642;23;20466;-81
2023/11/06 09:09:40;;;;;;;10.43;1.90;;;;;;;;;;6003233;23;20475;-83
2023/11/06 09:12:23;;;;;;;4.60;1.07;;;;;;;;;;5979806;23;20411;-85
2023/11/06 09:22:07;;;;;;;2.70;1.17;;;;;;;;;;6053731;23;20565;-85
2023/11/06 09:24:51;;;;;;;4.70;2.60;;;;;;;;;;6085853;23;20436;-84
2023/11/06 09:27:59;;;;;;;1.97;1.70;;;;;;;;;;6121237;23;20412;-85
2023/11/06 09:31:00;;;;;;;4.03;1.30;;;;;;;;;;6124171;23;20400;-83
2023/11/06 09:36:30;;;;;;;2.77;1.03;;;;;;;;;;6128584;23;20447;-83
2023/11/06 10:00:35;;;;;;;5.67;1.23;;;;;;;;;;5945702;24;21297;-80
2023/11/06 10:10:34;;;;;;;;;;;;;;;;;;;;;
2023/11/06 10:17:28;;;;;;;5.20;2.10;;;;;;;;;;5855012;24;20499;-81
2023/11/06 10:20:16;;;;;;;3.90;0.80;;;;;;;;;;5862228;24;20395;-82
2023/11/06 10:24:17;;;;;;;6.43;1.13;;;;;;;;;;5844286;24;20466;-81
2023/11/06 10:31:00;;;;;;;5.53;1.40;;;;;;;;;;5915172;24;20397;-81
2023/11/06 10:44:43;;;;;;;3.40;1.13;;;;;;;;;;5964065;23;20530;-82
2023/11/06 10:47:49;;;;;;;4.90;1.20;;;;;;;;;;5922997;23;20666;-84
2023/11/06 10:51:01;;;;;;;3.57;1.03;;;;;;;;;;5994997;23;20418;-83
2023/11/06 10:53:45;;;;;;;7.20;1.30;;;;;;;;;;6095791;23;20427;-82
2023/11/06 10:56:17;;;;;;;2.20;1.03;;;;;;;;;;6093671;23;20444;-84
2023/11/06 11:02:19;;;;;;;5.10;1.20;;;;;;;;;;6003066;23;20421;-84
2023/11/06 11:07:49;;;;;;;6.80;1.30;;;;;;;;;;6121661;23;20459;-82
2023/11/06 11:11:00;;;;;;;2.20;1.23;;;;;;;;;;6101256;23;20399;-83
2023/11/06 11:13:58;;;;;;;6.83;1.27;;;;;;;;;;6098582;23;20419;-83
2023/11/06 11:16:52;;;;;;;3.30;1.03;;;;;;;;;;6100319;23;20538;-85
2023/11/06 11:19:44;;;;;;;4.77;1.30;;;;;;;;;;6125505;23;20467;-82
2023/11/06 11:22:31;;;;;;;7.37;1.23;;;;;;;;;;6100116;23;20431;-81
2023/11/06 11:25:23;;;;;;;2.03;1.13;;;;;;;;;;6098552;23;20431;-81
2023/11/06 11:28:14;;;;;;;3.67;1.13;;;;;;;;;;6102575;23;20407;-81
2023/11/06 11:31:12;;;;;;;1.83;0.70;;;;;;;;;;6114774;23;20986;-81
2023/11/06 11:34:05;;;;;;;5.13;1.30;;;;;;;;;;6135846;23;20411;-82
2023/11/06 11:40:35;;;;;;;1.53;0.73;;;;;;;;;;6117196;23;20419;-82
2023/11/06 11:43:47;;;;;;;1.70;0.73;;;;;;;;;;6127508;23;20418;-84
2023/11/06 11:46:44;;;;;;;2.40;0.70;;;;;;;;;;6098240;23;20415;-83
2023/11/06 11:49:54;;;;;;;1.87;0.73;;;;;;;;;;6127626;23;20446;-82
2023/11/06 11:52:56;;;;;;;0.70;0.60;;;;;;;;;;6105268;23;20443;-85
2023/11/06 11:55:39;;;;;;;1.37;0.60;;;;;;;;;;6113392;23;20459;-83
2023/11/06 11:58:21;;;;;;;1.73;0.83;;;;;;;;;;6111357;23;20474;-81
2023/11/06 12:01:18;;;;;;;;;;;;;;;;;;;;;
2023/11/06 12:04:05;;;;;;;;;;;;;;;;;;;;;
2023/11/06 12:07:15;;;;;;;1.87;0.67;;;;;;;;;;6128038;23;20444;-81
2023/11/06 12:10:01;;;;;;;0.43;0.37;;;;;;;;;;6086744;23;20548;-81
2023/11/06 12:15:40;;;;;;;2.77;0.80;;;;;;;;;;6126964;23;20514;-83
2023/11/06 12:18:35;;;;;;;0.73;0.50;;;;;;;;;;6124673;23;20456;-84
2023/11/06 12:25:12;;;;;;;1.33;0.70;;;;;;;;;;6122915;23;20411;-84
2023/11/06 12:28:27;;;;;;;;;;;;;;;;;;;;;
2023/11/06 12:31:43;;;;;;;2.83;0.60;;;;;;;;;;6112946;23;20394;-82
2023/11/06 12:48:52;;;;;;;1.80;0.70;;;;;;;;;;6124391;23;20419;-82
2023/11/06 12:51:54;;;;;;;0.40;0.37;;;;;;;;;;6047657;23;20507;-81
2023/11/06 12:55:24;;;;;;;;;;;;;;;;;;;;;
2023/11/06 12:58:32;;;;;;;1.03;0.50;;;;;;;;;;6123892;23;20502;-84
2023/11/06 13:05:00;;;;;;;;;;;;;;;;;;;;;
2023/11/06 13:18:48;;;;;;;;;;;;;;;;;;;;;
2023/11/06 13:21:40;;;;;;;0.50;0.50;;;;;;;;;;5919886;24;20424;-84
2023/11/06 13:26:51;;;;;;;2.63;0.63;;;;;;;;;;6091980;23;20498;-83
2023/11/06 13:29:50;;;;;;;0.60;0.60;;;;;;;;;;6070485;23;20404;-85
2023/11/06 13:32:43;;;;;;;0.97;0.73;;;;;;;;;;6073075;23;20472;-82
2023/11/06 13:35:42;;;;;;;;;;;;;;;;;;;;;
2023/11/06 13:38:52;;;;;;;1.63;0.50;;;;;;;;;;6064527;23;20401;-86
2023/11/06 13:41:36;;;;;;;0.90;0.60;;;;;;;;;;6091568;23;20425;-86
2023/11/06 13:56:51;;;;;;;0.50;0.50;;;;;;;;;;5975157;23;20448;-82
2023/11/06 14:06:41;;;;;;;1.63;0.60;;;;;;;;;;5790219;24;20450;-83
2023/11/06 14:09:56;;;;;;;;;;;;;;;;;;;;;
2023/11/06 14:13:01;;;;;;;2.07;0.70;;;;;;;;;;5817453;24;20453;-84
2023/11/06 14:22:13;;;;;;;0.83;0.83;;;;;;;;;;5751667;24;20934;-81
2023/11/06 14:25:08;;;;;;;2.30;0.43;;;;;;;;;;5735795;24;20416;-83
2023/11/06 14:31:01;;;;;;;0.70;0.50;;;;;;;;;;5809462;24;20428;-83
2023/11/06 14:36:44;;;;;;;0.80;0.50;;;;;;;;;;6096058;23;20425;-83
2023/11/06 14:39:27;;;;;;;1.00;0.60;;;;;;;;;;6079914;23;20416;-83
2023/11/06 14:42:06;;;;;;;1.17;0.50;;;;;;;;;;6075206;23;20754;-82
2023/11/06 14:44:37;;;;;;;2.93;0.90;;;;;;;;;;6072780;23;20440;-82
2023/11/06 14:50:57;;;;;;;0.80;0.50;;;;;;;;;;6049158;23;20392;-84
2023/11/06 14:56:45;;;;;;;1.03;0.60;;;;;;;;;;6099977;23;20447;-82
2023/11/06 14:59:22;;;;;;;2.63;0.70;;;;;;;;;;6075292;23;20442;-83
2023/11/06 15:15:51;;;;;;;;;;;;;;;;;;;;;
2023/11/06 15:36:18;;;;;;;0.90;0.70;;;;;;;;;;5926272;24;20577;-83
2023/11/06 15:38:48;;;;;;;3.40;0.90;;;;;;;;;;5916261;24;20416;-84
2023/11/06 15:41:47;;;;;;;4.20;0.93;;;;;;;;;;5947477;23;20477;-83
2023/11/06 15:44:21;;;;;;;1.43;1.20;;;;;;;;;;6084377;23;20427;-84
2023/11/06 15:46:51;;;;;;;2.20;0.70;;;;;;;;;;6099605;23;20443;-84
2023/11/06 15:49:37;;;;;;;;;;;;;;;;;;;;;
2023/11/06 15:52:22;;;;;;;1.00;0.80;;;;;;;;;;6127121;23;20420;-81
2023/11/06 15:55:06;;;;;;;1.00;0.70;;;;;;;;;;6104582;23;20506;-81
2023/11/06 15:57:44;;;;;;;0.90;0.60;;;;;;;;;;6105385;23;20443;-82
2023/11/06 16:00:32;;;;;;;3.07;0.90;;;;;;;;;;6130266;23;20407;-85
2023/11/06 16:03:02;;;;;;;3.17;0.80;;;;;;;;;;6102036;23;20412;-82
2023/11/06 16:05:49;;;;;;;2.37;0.90;;;;;;;;;;6136167;23;20896;-84
2023/11/06 16:08:27;;;;;;;0.93;0.80;;;;;;;;;;6115767;23;20442;-85
2023/11/06 16:11:17;;;;;;;2.43;1.10;;;;;;;;;;6134065;23;20468;-84
2023/11/06 16:14:18;;;;;;;3.53;1.27;;;;;;;;;;6125901;23;20419;-86
2023/11/06 16:16:52;;;;;;;2.47;1.10;;;;;;;;;;6147962;23;20471;-85
2023/11/06 16:19:21;;;;;;;2.10;0.80;;;;;;;;;;6139867;23;20479;-84
2023/11/06 16:21:57;;;;;;;1.93;0.90;;;;;;;;;;6107952;23;20427;-81
2023/11/06 16:24:37;;;;;;;0.63;0.63;;;;;;;;;;6107061;23;20435;-82
2023/11/06 16:27:05;;;;;;;3.23;1.33;;;;;;;;;;6133882;23;20407;-82
2023/11/06 16:29:36;;;;;;;1.23;0.90;;;;;;;;;;6105514;23;20873;-83
2023/11/06 16:32:15;;;;;;;4.90;1.73;;;;;;;;;;6105520;23;20415;-86
2023/11/06 16:34:44;;;;;;;0.87;0.83;;;;;;;;;;6108841;23;20451;-83
2023/11/06 16:37:14;;;;;;;3.70;0.97;;;;;;;;;;6132662;23;20530;-84
2023/11/06 16:39:48;;;;;;;0.90;0.70;;;;;;;;;;6132990;23;20399;-83
2023/11/06 16:42:22;;;;;;;1.00;0.90;;;;;;;;;;6109719;23;20426;-82
2023/11/06 16:45:02;;;;;;;1.60;0.90;;;;;;;;;;6110961;23;20432;-85
2023/11/06 16:47:32;;;;;;;1.67;0.70;;;;;;;;;;6107196;23;20408;-83
2023/11/06 16:50:06;;;;;;;3.40;0.90;;;;;;;;;;6132999;23;20420;-84
2023/11/06 16:52:39;;;;;;;1.97;0.83;;;;;;;;;;6111747;23;20396;-83
2023/11/06 16:55:42;;;;;;;1.80;0.90;;;;;;;;;;6124562;23;20451;-82
2023/11/06 17:02:18;;;;;;;2.23;1.20;;;;;;;;;;6032086;23;20405;-81
2023/11/06 17:04:50;;;;;;;1.50;1.00;;;;;;;;;;6089360;23;20539;-84
2023/11/06 17:07:27;;;;;;;1.90;1.00;;;;;;;;;;6115354;23;20466;-84
2023/11/06 17:10:15;;;;;;;2.10;1.20;;;;;;;;;;6120510;23;20519;-84
2023/11/06 17:13:17;;;;;;;1.80;1.17;;;;;;;;;;6120721;23;20422;-86
2023/11/06 17:15:54;;;;;;;1.97;1.83;;;;;;;;;;6102353;23;20435;-83
2023/11/06 17:19:00;;;;;;;2.77;1.60;;;;;;;;;;6113528;23;20447;-84
2023/11/06 17:21:51;;;;;;;2.50;1.33;;;;;;;;;;6102792;23;20420;-85
2023/11/06 17:24:43;;;;;;;3.67;0.90;;;;;;;;;;6108068;23;21317;-83
2023/11/06 17:27:28;;;;;;;1.50;0.90;;;;;;;;;;6102085;23;20404;-82
2023/11/06 18:33:54;;;;;;;3.07;1.30;;;;;;;;;;5974124;24;20401;-84
2023/11/06 18:36:49;;;;;;;3.80;1.17;;;;;;;;;;5920134;24;20427;-86
2023/11/06 18:39:29;;;;;;;1.73;0.83;;;;;;;;;;5988456;24;20428;-86
2023/11/06 18:42:16;;;;;;;1.90;1.20;;;;;;;;;;5968434;24;20489;-84
2023/11/06 18:44:53;;;;;;;2.43;1.00;;;;;;;;;;6067876;23;20451;-84
2023/11/06 18:47:32;;;;;;;6.30;1.10;;;;;;;;;;6105218;23;20559;-85
2023/11/06 18:50:20;;;;;;;1.27;1.10;;;;;;;;;;6082723;23;20389;-85
2023/11/06 18:52:55;;;;;;;1.83;0.90;;;;;;;;;;6106272;23;20419;-85
2023/11/06 18:56:36;;;;;;;1.53;1.03;;;;;;;;;;6105697;23;20784;-84
2023/11/06 18:59:04;;;;;;;0.70;0.70;;;;;;;;;;6096036;23;20453;-86
2023/11/06 19:05:20;;;;;;;1.07;0.90;;;;;;;;;;6105894;23;20443;-83
2023/11/06 19:07:56;;;;;;;2.87;1.50;;;;;;;;;;6086155;23;20961;-84
2023/11/06 19:10:49;;;;;;;1.73;1.10;;;;;;;;;;6086654;23;20485;-85
2023/11/06 19:13:20;;;;;;;1.53;1.27;;;;;;;;;;6076509;23;20442;-87
2023/11/06 19:16:03;;;;;;;2.30;1.23;;;;;;;;;;6112701;23;20439;-86
2023/11/06 19:18:44;;;;;;;1.60;1.37;;;;;;;;;;6081690;23;20486;-85
2023/11/06 19:21:27;;;;;;;2.87;1.30;;;;;;;;;;6078800;23;20450;-84
2023/11/06 19:24:20;;;;;;;3.87;1.93;;;;;;;;;;6079214;23;20491;-85
2023/11/06 19:26:54;;;;;;;4.10;1.30;;;;;;;;;;6078503;23;20467;-84
2023/11/06 19:32:35;;;;;;;1.90;1.27;;;;;;;;;;6103539;23;20459;-83
2023/11/06 19:35:14;;;;;;;4.10;1.63;;;;;;;;;;6079243;23;20790;-85
2023/11/06 19:38:08;;;;;;;1.80;1.30;;;;;;;;;;6079388;23;20550;-84
2023/11/06 19:40:54;;;;;;;4.20;1.80;;;;;;;;;;6105670;23;20408;-86
2023/11/06 19:43:39;;;;;;;2.80;1.70;;;;;;;;;;6105368;23;20408;-85
2023/11/06 19:46:32;;;;;;;2.30;1.53;;;;;;;;;;6080610;23;20417;-83
2023/11/06 19:49:25;;;;;;;2.40;1.63;;;;;;;;;;6078436;23;20436;-85
2023/11/06 19:52:07;;;;;;;3.17;1.50;;;;;;;;;;6080216;23;20423;-85
2023/11/06 19:54:43;;;;;;;4.50;2.07;;;;;;;;;;6090283;23;20471;-85
2023/11/06 19:57:23;;;;;;;5.50;1.70;;;;;;;;;;6096175;23;20400;-86
2023/11/06 20:00:20;;;;;;;3.60;1.63;;;;;;;;;;6094903;23;20405;-85
2023/11/06 20:03:19;;;;;;;;;;;;;;;;;;;;;
2023/11/06 20:05:53;;;;;;;3.40;1.50;;;;;;;;;;6094343;23;20440;-82
2023/11/06 20:08:57;;;;;;;2.27;1.30;;;;;;;;;;6082691;23;20412;-86
2023/11/06 20:11:28;;;;;;;3.07;0.93;;;;;;;;;;6038616;23;20519;-85
2023/11/06 20:14:20;;;;;;;3.53;2.17;;;;;;;;;;6067054;23;20420;-85
2023/11/06 20:17:06;;;;;;;1.30;1.20;;;;;;;;;;6070423;23;20917;-84
2023/11/06 20:19:48;;;;;;;1.43;1.33;;;;;;;;;;5997486;23;20997;-85
2023/11/06 20:25:32;;;;;;;3.40;1.10;;;;;;;;;;6082387;23;20432;-86
2023/11/06 20:28:32;;;;;;;1.80;1.47;;;;;;;;;;6092256;23;20420;-85
2023/11/06 20:31:04;;;;;;;4.93;1.70;;;;;;;;;;6063892;23;20464;-85
2023/11/06 20:33:42;;;;;;;2.53;1.67;;;;;;;;;;6066438;23;20417;-85
2023/11/06 20:36:40;;;;;;;2.70;1.70;;;;;;;;;;6075673;23;20503;-84
2023/11/06 20:39:37;;;;;;;3.27;1.57;;;;;;;;;;6070012;23;20527;-83
2023/11/06 20:42:26;;;;;;;3.13;1.37;;;;;;;;;;6070703;23;20405;-83
2023/11/06 20:45:01;;;;;;;4.07;1.87;;;;;;;;;;6065529;23;20434;-83
2023/11/06 20:47:40;;;;;;;4.33;1.73;;;;;;;;;;6065621;23;21003;-84
2023/11/06 20:50:24;;;;;;;2.57;1.50;;;;;;;;;;6071988;23;20408;-85
2023/11/06 20:53:06;;;;;;;2.80;2.07;;;;;;;;;;6086991;23;20439;-85
2023/11/06 20:55:51;;;;;;;3.23;1.63;;;;;;;;;;6091022;23;20559;-85
2023/11/06 20:58:30;;;;;;;3.07;2.00;;;;;;;;;;6088993;23;20441;-85
2023/11/06 21:01:17;;;;;;;;;;;;;;;;;;;;;
2023/11/06 21:04:02;;;;;;;2.23;1.80;;;;;;;;;;6053953;23;20451;-87
2023/11/06 21:06:59;;;;;;;3.10;1.70;;;;;;;;;;6052828;23;20483;-84
2023/11/06 21:10:25;;;;;;;4.17;1.67;;;;;;;;;;5968514;24;20405;-84
2023/11/06 21:13:04;;;;;;;3.70;2.00;;;;;;;;;;6021057;23;20420;-85
2023/11/06 21:16:21;;;;;;;4.23;2.17;;;;;;;;;;6082107;23;21215;-86
2023/11/06 21:19:12;;;;;;;5.03;3.20;;;;;;;;;;6082834;23;20448;-85
2023/11/06 21:21:53;;;;;;;4.00;2.30;;;;;;;;;;6065615;23;20408;-84
2023/11/06 21:24:47;;;;;;;;;;;;;;;;;;;;;
2023/11/06 21:27:35;;;;;;;4.80;2.60;;;;;;;;;;6092825;23;20409;-87
2023/11/06 21:30:23;;;;;;;4.00;2.63;;;;;;;;;;6094827;23;20958;-83
2023/11/06 21:33:23;;;;;;;6.20;2.50;;;;;;;;;;5983437;23;20469;-83
2023/11/06 21:35:54;;;;;;;2.33;1.80;;;;;;;;;;6003209;23;20829;-83
2023/11/06 21:38:28;;;;;;;4.20;2.20;;;;;;;;;;5979220;23;21398;-84
2023/11/06 21:41:12;;;;;;;3.60;1.60;;;;;;;;;;5951463;23;20411;-80
2023/11/06 21:44:03;;;;;;;2.63;1.80;;;;;;;;;;5982425;23;21167;-85
2023/11/06 21:46:56;;;;;;;2.17;1.47;;;;;;;;;;5970891;23;20407;-81
2023/11/06 21:49:28;;;;;;;4.47;2.40;;;;;;;;;;5978028;23;20431;-85
2023/11/06 21:58:05;;;;;;;4.47;1.97;;;;;;;;;;6007054;23;20546;-82
2023/11/06 22:00:43;;;;;;;4.73;2.03;;;;;;;;;;6010096;23;20483;-83
2023/11/06 22:03:38;;;;;;;4.50;1.70;;;;;;;;;;6042689;23;20456;-83
2023/11/06 22:06:31;;;;;;;4.30;1.53;;;;;;;;;;6072369;23;20415;-81
2023/11/06 22:09:11;;;;;;;3.57;1.80;;;;;;;;;;6072108;23;20457;-84
2023/11/06 22:12:01;;;;;;;1.30;1.20;;;;;;;;;;6080681;23;20432;-84
2023/11/06 22:17:24;;;;;;;3.90;3.10;;;;;;;;;;6095801;23;20393;-83
2023/11/06 22:23:26;;;;;;;2.60;2.00;;;;;;;;;;6092773;23;20515;-85
2023/11/06 22:26:14;;;;;;;3.57;1.63;;;;;;;;;;6070912;23;20910;-84
2023/11/06 22:28:45;;;;;;;3.17;1.97;;;;;;;;;;6065633;23;20447;-83
2023/11/06 22:31:21;;;;;;;5.13;1.70;;;;;;;;;;6080706;23;20417;-83
2023/11/06 22:33:54;;;;;;;2.13;1.40;;;;;;;;;;6080193;23;20491;-84
2023/11/06 22:36:24;;;;;;;1.63;1.20;;;;;;;;;;6073841;23;20415;-82
2023/11/06 22:39:12;;;;;;;;;;;;;;;;;;;;;
2023/11/06 22:41:43;;;;;;;2.70;1.37;;;;;;;;;;6099018;23;20412;-82
2023/11/06 22:44:17;;;;;;;1.83;1.00;;;;;;;;;;6098321;23;20456;-84
2023/11/06 22:47:00;;;;;;;2.93;1.10;;;;;;;;;;6104234;23;20440;-83
2023/11/06 22:49:43;;;;;;;1.80;1.60;;;;;;;;;;6088086;23;20472;-83
2023/11/06 22:52:34;;;;;;;2.60;1.33;;;;;;;;;;6081164;23;20532;-84
2023/11/06 22:55:08;;;;;;;4.00;1.13;;;;;;;;;;6111428;23;20496;-84
2023/11/06 22:58:02;;;;;;;2.17;1.40;;;;;;;;;;6091336;23;20508;-84
2023/11/06 23:00:39;;;;;;;1.30;1.20;;;;;;;;;;6093429;23;20436;-85
2023/11/06 23:03:38;;;;;;;2.63;1.23;;;;;;;;;;6116580;23;20478;-83
2023/11/06 23:06:23;;;;;;;1.13;0.93;;;;;;;;;;6094492;23;20400;-84
2023/11/06 23:08:58;;;;;;;2.60;1.00;;;;;;;;;;6079180;23;20423;-81
2023/11/06 23:11:42;;;;;;;1.90;1.13;;;;;;;;;;6075972;23;20416;-80
2023/11/06 23:20:15;;;;;;;2.57;0.90;;;;;;;;;;6101012;23;20480;-82
2023/11/06 23:22:51;;;;;;;2.10;1.10;;;;;;;;;;6074053;23;20416;-83
2023/11/06 23:25:29;;;;;;;1.90;0.70;;;;;;;;;;6077207;23;20450;-82
2023/11/06 23:28:13;;;;;;;1.90;1.00;;;;;;;;;;6076190;23;20412;-83
2023/11/06 23:30:50;;;;;;;0.80;0.70;;;;;;;;;;6097242;23;20532;-84
2023/11/06 23:33:36;;;;;;;1.03;0.80;;;;;;;;;;6100513;23;20448;-84
2023/11/06 23:36:28;;;;;;;0.70;0.70;;;;;;;;;;6101066;23;20420;-83
2023/11/06 23:40:13;;;;;;;1.30;0.73;;;;;;;;;;6082045;23;20434;-84
2023/11/06 23:42:12;;;;;;;1.93;1.20;;;;;;;;;;6078072;23;20417;-82
2023/11/06 23:44:56;;;;;;;1.47;1.03;;;;;;;;;;6067049;23;20436;-84
2023/11/06 23:51:10;;;;;;;0.97;0.80;;;;;;;;;;6060160;23;20392;-82
2023/11/06 23:53:37;;;;;;;0.70;0.67;;;;;;;;;;6096555;23;20455;-86
2023/11/06 23:56:20;;;;;;;1.63;0.83;;;;;;;;;;6074623;23;20985;-82